sensor_id;sensor_type;location;lat;lon;timestamp;P1;durP1;ratioP1;P2;durP2;ratioP2
35891;SDS011;21993;42.672;23.296;2022-07-23T00:00:54;9.50;;;7.33;;
35891;SDS011;21993;42.672;23.296;2022-07-23T00:03:20;8.67;;;7.77;;
35891;SDS011;21993;42.672;23.296;2022-07-23T00:05:46;11.80;;;8.33;;
35891;SDS011;21993;42.672;23.296;2022-07-23T00:08:11;12.63;;;8.73;;
35891;SDS011;21993;42.672;23.296;2022-07-23T00:10:37;9.43;;;7.87;;
35891;SDS011;21993;42.672;23.296;2022-07-23T00:13:03;12.67;;;8.07;;
35891;SDS011;21993;42.672;23.296;2022-07-23T00:15:28;14.80;;;9.17;;
35891;SDS011;21993;42.672;23.296;2022-07-23T00:17:54;11.57;;;8.20;;
35891;SDS011;21993;42.672;23.296;2022-07-23T00:20:19;11.37;;;7.90;;
35891;SDS011;21993;42.672;23.296;2022-07-23T00:22:48;12.73;;;8.60;;
35891;SDS011;21993;42.672;23.296;2022-07-23T00:25:15;14.43;;;7.77;;
35891;SDS011;21993;42.672;23.296;2022-07-23T00:27:40;11.57;;;8.47;;
35891;SDS011;21993;42.672;23.296;2022-07-23T00:30:07;14.77;;;8.33;;
35891;SDS011;21993;42.672;23.296;2022-07-23T00:32:44;10.37;;;8.03;;
35891;SDS011;21993;42.672;23.296;2022-07-23T00:35:12;16.70;;;8.50;;
35891;SDS011;21993;42.672;23.296;2022-07-23T00:37:37;14.43;;;8.40;;
35891;SDS011;21993;42.672;23.296;2022-07-23T00:40:03;12.33;;;7.93;;
35891;SDS011;21993;42.672;23.296;2022-07-23T00:42:30;15.13;;;8.33;;
35891;SDS011;21993;42.672;23.296;2022-07-23T00:44:56;12.83;;;7.70;;
35891;SDS011;21993;42.672;23.296;2022-07-23T00:47:21;11.63;;;7.07;;
35891;SDS011;21993;42.672;23.296;2022-07-23T00:49:47;12.57;;;7.87;;
35891;SDS011;21993;42.672;23.296;2022-07-23T00:52:12;12.17;;;8.10;;
35891;SDS011;21993;42.672;23.296;2022-07-23T00:54:38;13.30;;;8.20;;
35891;SDS011;21993;42.672;23.296;2022-07-23T00:57:04;12.83;;;7.80;;
35891;SDS011;21993;42.672;23.296;2022-07-23T00:59:30;10.33;;;8.20;;
35891;SDS011;21993;42.672;23.296;2022-07-23T01:01:55;10.03;;;8.37;;
35891;SDS011;21993;42.672;23.296;2022-07-23T01:04:21;10.60;;;9.17;;
35891;SDS011;21993;42.672;23.296;2022-07-23T01:06:46;13.67;;;8.13;;
35891;SDS011;21993;42.672;23.296;2022-07-23T01:09:12;11.93;;;7.93;;
35891;SDS011;21993;42.672;23.296;2022-07-23T01:11:37;13.47;;;8.13;;
35891;SDS011;21993;42.672;23.296;2022-07-23T01:14:10;14.27;;;8.27;;
35891;SDS011;21993;42.672;23.296;2022-07-23T01:16:43;14.83;;;8.60;;
35891;SDS011;21993;42.672;23.296;2022-07-23T01:19:10;10.30;;;8.13;;
35891;SDS011;21993;42.672;23.296;2022-07-23T01:21:36;14.57;;;9.13;;
35891;SDS011;21993;42.672;23.296;2022-07-23T01:24:03;10.17;;;8.10;;
35891;SDS011;21993;42.672;23.296;2022-07-23T01:26:29;11.50;;;8.93;;
35891;SDS011;21993;42.672;23.296;2022-07-23T01:28:55;14.20;;;8.17;;
35891;SDS011;21993;42.672;23.296;2022-07-23T01:31:20;11.83;;;8.57;;
35891;SDS011;21993;42.672;23.296;2022-07-23T01:33:46;11.17;;;7.90;;
35891;SDS011;21993;42.672;23.296;2022-07-23T01:36:11;12.20;;;8.30;;
35891;SDS011;21993;42.672;23.296;2022-07-23T01:38:37;10.23;;;8.07;;
35891;SDS011;21993;42.672;23.296;2022-07-23T01:41:02;12.90;;;9.07;;
35891;SDS011;21993;42.672;23.296;2022-07-23T01:43:28;11.33;;;8.37;;
35891;SDS011;21993;42.672;23.296;2022-07-23T01:45:53;12.17;;;8.10;;
35891;SDS011;21993;42.672;23.296;2022-07-23T01:48:19;11.73;;;7.87;;
35891;SDS011;21993;42.672;23.296;2022-07-23T01:50:46;9.93;;;8.07;;
35891;SDS011;21993;42.672;23.296;2022-07-23T01:53:11;10.23;;;7.90;;
35891;SDS011;21993;42.672;23.296;2022-07-23T01:55:37;10.93;;;8.03;;
35891;SDS011;21993;42.672;23.296;2022-07-23T01:58:03;8.67;;;7.77;;
35891;SDS011;21993;42.672;23.296;2022-07-23T02:00:28;12.43;;;8.37;;
35891;SDS011;21993;42.672;23.296;2022-07-23T02:02:53;14.73;;;7.57;;
35891;SDS011;21993;42.672;23.296;2022-07-23T02:05:19;13.33;;;8.03;;
35891;SDS011;21993;42.672;23.296;2022-07-23T02:07:44;14.07;;;8.20;;
35891;SDS011;21993;42.672;23.296;2022-07-23T02:10:10;10.30;;;7.50;;
35891;SDS011;21993;42.672;23.296;2022-07-23T02:12:35;12.53;;;7.97;;
35891;SDS011;21993;42.672;23.296;2022-07-23T02:15:01;14.27;;;9.23;;
35891;SDS011;21993;42.672;23.296;2022-07-23T02:17:27;11.30;;;8.63;;
35891;SDS011;21993;42.672;23.296;2022-07-23T02:19:52;9.77;;;7.80;;
35891;SDS011;21993;42.672;23.296;2022-07-23T02:22:17;13.63;;;8.37;;
35891;SDS011;21993;42.672;23.296;2022-07-23T02:24:43;17.63;;;9.27;;
35891;SDS011;21993;42.672;23.296;2022-07-23T02:27:08;13.53;;;8.37;;
35891;SDS011;21993;42.672;23.296;2022-07-23T02:29:34;9.27;;;8.23;;
35891;SDS011;21993;42.672;23.296;2022-07-23T02:31:59;14.43;;;8.37;;
35891;SDS011;21993;42.672;23.296;2022-07-23T02:34:25;12.23;;;8.27;;
35891;SDS011;21993;42.672;23.296;2022-07-23T02:36:50;12.57;;;8.20;;
35891;SDS011;21993;42.672;23.296;2022-07-23T02:39:15;13.83;;;7.40;;
35891;SDS011;21993;42.672;23.296;2022-07-23T02:41:41;14.80;;;8.80;;
35891;SDS011;21993;42.672;23.296;2022-07-23T02:44:06;15.17;;;8.83;;
35891;SDS011;21993;42.672;23.296;2022-07-23T02:46:32;11.57;;;8.23;;
35891;SDS011;21993;42.672;23.296;2022-07-23T02:48:57;11.47;;;8.40;;
35891;SDS011;21993;42.672;23.296;2022-07-23T02:51:23;13.90;;;7.70;;
35891;SDS011;21993;42.672;23.296;2022-07-23T02:53:48;9.40;;;7.73;;
35891;SDS011;21993;42.672;23.296;2022-07-23T02:56:14;14.23;;;8.03;;
35891;SDS011;21993;42.672;23.296;2022-07-23T02:58:39;15.83;;;9.10;;
35891;SDS011;21993;42.672;23.296;2022-07-23T03:01:04;14.77;;;8.53;;
35891;SDS011;21993;42.672;23.296;2022-07-23T03:03:30;13.20;;;8.37;;
35891;SDS011;21993;42.672;23.296;2022-07-23T03:05:56;13.27;;;8.33;;
35891;SDS011;21993;42.672;23.296;2022-07-23T03:08:21;10.93;;;7.83;;
35891;SDS011;21993;42.672;23.296;2022-07-23T03:10:47;11.60;;;8.30;;
35891;SDS011;21993;42.672;23.296;2022-07-23T03:13:12;13.77;;;7.77;;
35891;SDS011;21993;42.672;23.296;2022-07-23T03:15:38;13.83;;;7.97;;
35891;SDS011;21993;42.672;23.296;2022-07-23T03:18:03;12.83;;;8.67;;
35891;SDS011;21993;42.672;23.296;2022-07-23T03:20:29;11.53;;;9.13;;
35891;SDS011;21993;42.672;23.296;2022-07-23T03:22:54;10.93;;;8.30;;
35891;SDS011;21993;42.672;23.296;2022-07-23T03:25:20;16.63;;;8.63;;
35891;SDS011;21993;42.672;23.296;2022-07-23T03:27:45;10.60;;;7.90;;
35891;SDS011;21993;42.672;23.296;2022-07-23T03:30:11;13.50;;;8.50;;
35891;SDS011;21993;42.672;23.296;2022-07-23T03:32:37;11.13;;;8.87;;
35891;SDS011;21993;42.672;23.296;2022-07-23T03:35:02;13.00;;;8.03;;
35891;SDS011;21993;42.672;23.296;2022-07-23T03:37:29;16.77;;;8.90;;
35891;SDS011;21993;42.672;23.296;2022-07-23T03:39:54;14.30;;;9.17;;
35891;SDS011;21993;42.672;23.296;2022-07-23T03:42:20;12.40;;;8.13;;
35891;SDS011;21993;42.672;23.296;2022-07-23T03:44:45;15.33;;;8.70;;
35891;SDS011;21993;42.672;23.296;2022-07-23T03:47:11;15.13;;;9.13;;
35891;SDS011;21993;42.672;23.296;2022-07-23T03:49:36;13.43;;;8.90;;
35891;SDS011;21993;42.672;23.296;2022-07-23T03:52:02;11.60;;;9.17;;
35891;SDS011;21993;42.672;23.296;2022-07-23T03:54:28;14.70;;;8.53;;
35891;SDS011;21993;42.672;23.296;2022-07-23T03:56:53;16.33;;;8.93;;
35891;SDS011;21993;42.672;23.296;2022-07-23T03:59:19;15.73;;;9.23;;
35891;SDS011;21993;42.672;23.296;2022-07-23T04:01:44;14.17;;;9.03;;
35891;SDS011;21993;42.672;23.296;2022-07-23T04:04:10;17.50;;;9.77;;
35891;SDS011;21993;42.672;23.296;2022-07-23T04:06:35;12.03;;;9.03;;
35891;SDS011;21993;42.672;23.296;2022-07-23T04:09:01;20.20;;;9.00;;
35891;SDS011;21993;42.672;23.296;2022-07-23T04:11:27;15.97;;;9.43;;
35891;SDS011;21993;42.672;23.296;2022-07-23T04:13:53;14.30;;;9.07;;
35891;SDS011;21993;42.672;23.296;2022-07-23T04:16:18;18.67;;;9.90;;
35891;SDS011;21993;42.672;23.296;2022-07-23T04:18:44;15.40;;;9.57;;
35891;SDS011;21993;42.672;23.296;2022-07-23T04:21:09;11.63;;;8.60;;
35891;SDS011;21993;42.672;23.296;2022-07-23T04:23:35;10.57;;;9.47;;
35891;SDS011;21993;42.672;23.296;2022-07-23T04:26:00;14.77;;;9.23;;
35891;SDS011;21993;42.672;23.296;2022-07-23T04:28:26;19.13;;;9.20;;
35891;SDS011;21993;42.672;23.296;2022-07-23T04:30:51;11.00;;;9.47;;
35891;SDS011;21993;42.672;23.296;2022-07-23T04:33:17;22.77;;;10.97;;
35891;SDS011;21993;42.672;23.296;2022-07-23T04:35:42;14.73;;;9.23;;
35891;SDS011;21993;42.672;23.296;2022-07-23T04:38:08;14.47;;;8.67;;
35891;SDS011;21993;42.672;23.296;2022-07-23T04:40:33;16.00;;;8.80;;
35891;SDS011;21993;42.672;23.296;2022-07-23T04:42:59;9.80;;;8.40;;
35891;SDS011;21993;42.672;23.296;2022-07-23T04:45:24;10.97;;;8.03;;
35891;SDS011;21993;42.672;23.296;2022-07-23T04:47:50;15.87;;;8.37;;
35891;SDS011;21993;42.672;23.296;2022-07-23T04:50:15;15.23;;;9.07;;
35891;SDS011;21993;42.672;23.296;2022-07-23T04:52:49;10.23;;;7.83;;
35891;SDS011;21993;42.672;23.296;2022-07-23T04:55:14;10.83;;;8.07;;
35891;SDS011;21993;42.672;23.296;2022-07-23T04:57:40;9.87;;;8.27;;
35891;SDS011;21993;42.672;23.296;2022-07-23T05:00:06;18.40;;;9.00;;
35891;SDS011;21993;42.672;23.296;2022-07-23T05:02:32;10.23;;;8.10;;
35891;SDS011;21993;42.672;23.296;2022-07-23T05:04:58;12.17;;;8.27;;
35891;SDS011;21993;42.672;23.296;2022-07-23T05:07:23;9.53;;;8.53;;
35891;SDS011;21993;42.672;23.296;2022-07-23T05:09:49;11.20;;;8.83;;
35891;SDS011;21993;42.672;23.296;2022-07-23T05:12:14;10.83;;;9.27;;
35891;SDS011;21993;42.672;23.296;2022-07-23T05:14:40;13.80;;;8.93;;
35891;SDS011;21993;42.672;23.296;2022-07-23T05:17:05;12.00;;;9.57;;
35891;SDS011;21993;42.672;23.296;2022-07-23T05:19:33;9.33;;;7.80;;
35891;SDS011;21993;42.672;23.296;2022-07-23T05:21:58;10.43;;;8.90;;
35891;SDS011;21993;42.672;23.296;2022-07-23T05:24:24;13.50;;;8.83;;
35891;SDS011;21993;42.672;23.296;2022-07-23T05:26:49;12.37;;;8.50;;
35891;SDS011;21993;42.672;23.296;2022-07-23T05:29:15;13.23;;;10.03;;
35891;SDS011;21993;42.672;23.296;2022-07-23T05:31:40;10.43;;;8.50;;
35891;SDS011;21993;42.672;23.296;2022-07-23T05:34:06;14.67;;;9.00;;
35891;SDS011;21993;42.672;23.296;2022-07-23T05:36:31;13.47;;;9.87;;
35891;SDS011;21993;42.672;23.296;2022-07-23T05:38:58;13.03;;;9.37;;
35891;SDS011;21993;42.672;23.296;2022-07-23T05:41:23;10.83;;;9.63;;
35891;SDS011;21993;42.672;23.296;2022-07-23T05:43:49;12.43;;;9.43;;
35891;SDS011;21993;42.672;23.296;2022-07-23T05:46:14;15.33;;;9.63;;
35891;SDS011;21993;42.672;23.296;2022-07-23T05:48:39;15.67;;;8.67;;
35891;SDS011;21993;42.672;23.296;2022-07-23T05:51:06;11.23;;;9.67;;
35891;SDS011;21993;42.672;23.296;2022-07-23T05:53:32;11.40;;;8.67;;
35891;SDS011;21993;42.672;23.296;2022-07-23T05:55:59;18.53;;;10.23;;
35891;SDS011;21993;42.672;23.296;2022-07-23T05:58:24;14.10;;;10.17;;
35891;SDS011;21993;42.672;23.296;2022-07-23T06:00:50;19.67;;;10.60;;
35891;SDS011;21993;42.672;23.296;2022-07-23T06:06:37;17.07;;;10.30;;
35891;SDS011;21993;42.672;23.296;2022-07-23T06:09:03;13.93;;;9.80;;
35891;SDS011;21993;42.672;23.296;2022-07-23T06:11:28;13.87;;;9.23;;
35891;SDS011;21993;42.672;23.296;2022-07-23T06:13:54;15.93;;;9.67;;
35891;SDS011;21993;42.672;23.296;2022-07-23T06:19:41;12.83;;;9.60;;
35891;SDS011;21993;42.672;23.296;2022-07-23T06:22:07;12.90;;;8.83;;
35891;SDS011;21993;42.672;23.296;2022-07-23T06:24:32;9.73;;;8.70;;
35891;SDS011;21993;42.672;23.296;2022-07-23T06:26:58;11.87;;;8.70;;
35891;SDS011;21993;42.672;23.296;2022-07-23T06:29:23;11.40;;;9.40;;
35891;SDS011;21993;42.672;23.296;2022-07-23T06:31:48;10.43;;;9.33;;
35891;SDS011;21993;42.672;23.296;2022-07-23T06:34:14;17.20;;;10.53;;
35891;SDS011;21993;42.672;23.296;2022-07-23T06:36:39;18.77;;;10.33;;
35891;SDS011;21993;42.672;23.296;2022-07-23T06:39:05;11.23;;;9.03;;
35891;SDS011;21993;42.672;23.296;2022-07-23T06:41:30;16.03;;;10.17;;
35891;SDS011;21993;42.672;23.296;2022-07-23T06:43:56;13.67;;;9.57;;
35891;SDS011;21993;42.672;23.296;2022-07-23T06:46:21;14.33;;;11.80;;
35891;SDS011;21993;42.672;23.296;2022-07-23T06:48:47;13.23;;;8.83;;
35891;SDS011;21993;42.672;23.296;2022-07-23T06:51:12;14.33;;;10.57;;
35891;SDS011;21993;42.672;23.296;2022-07-23T06:53:38;12.13;;;8.40;;
35891;SDS011;21993;42.672;23.296;2022-07-23T06:56:03;10.87;;;9.13;;
35891;SDS011;21993;42.672;23.296;2022-07-23T06:58:29;12.20;;;8.53;;
35891;SDS011;21993;42.672;23.296;2022-07-23T07:00:54;12.80;;;9.73;;
35891;SDS011;21993;42.672;23.296;2022-07-23T07:03:21;13.40;;;9.97;;
35891;SDS011;21993;42.672;23.296;2022-07-23T07:05:47;13.57;;;9.30;;
35891;SDS011;21993;42.672;23.296;2022-07-23T07:08:12;18.07;;;9.43;;
35891;SDS011;21993;42.672;23.296;2022-07-23T07:10:38;13.27;;;8.97;;
35891;SDS011;21993;42.672;23.296;2022-07-23T07:13:03;13.63;;;9.70;;
35891;SDS011;21993;42.672;23.296;2022-07-23T07:15:29;14.87;;;9.60;;
35891;SDS011;21993;42.672;23.296;2022-07-23T07:17:54;18.17;;;10.90;;
35891;SDS011;21993;42.672;23.296;2022-07-23T07:20:20;14.80;;;9.37;;
35891;SDS011;21993;42.672;23.296;2022-07-23T07:22:45;13.63;;;9.63;;
35891;SDS011;21993;42.672;23.296;2022-07-23T07:25:11;10.00;;;8.97;;
35891;SDS011;21993;42.672;23.296;2022-07-23T07:27:36;15.67;;;9.57;;
35891;SDS011;21993;42.672;23.296;2022-07-23T07:30:02;18.03;;;12.17;;
35891;SDS011;21993;42.672;23.296;2022-07-23T07:32:29;12.93;;;9.50;;
35891;SDS011;21993;42.672;23.296;2022-07-23T07:34:57;10.20;;;9.03;;
35891;SDS011;21993;42.672;23.296;2022-07-23T07:37:23;12.30;;;8.80;;
35891;SDS011;21993;42.672;23.296;2022-07-23T07:39:48;11.10;;;9.00;;
35891;SDS011;21993;42.672;23.296;2022-07-23T07:42:14;14.53;;;9.13;;
35891;SDS011;21993;42.672;23.296;2022-07-23T07:44:39;14.93;;;9.37;;
35891;SDS011;21993;42.672;23.296;2022-07-23T07:47:05;11.10;;;8.60;;
35891;SDS011;21993;42.672;23.296;2022-07-23T07:49:30;16.87;;;10.30;;
35891;SDS011;21993;42.672;23.296;2022-07-23T07:51:55;16.00;;;9.30;;
35891;SDS011;21993;42.672;23.296;2022-07-23T07:54:21;12.20;;;9.13;;
35891;SDS011;21993;42.672;23.296;2022-07-23T07:56:46;14.00;;;9.20;;
35891;SDS011;21993;42.672;23.296;2022-07-23T07:59:13;13.43;;;9.63;;
35891;SDS011;21993;42.672;23.296;2022-07-23T08:01:39;15.13;;;10.00;;
35891;SDS011;21993;42.672;23.296;2022-07-23T08:04:05;18.73;;;10.60;;
35891;SDS011;21993;42.672;23.296;2022-07-23T08:06:31;15.00;;;9.43;;
35891;SDS011;21993;42.672;23.296;2022-07-23T08:08:56;13.13;;;9.07;;
35891;SDS011;21993;42.672;23.296;2022-07-23T08:11:21;16.47;;;10.77;;
35891;SDS011;21993;42.672;23.296;2022-07-23T08:13:47;11.73;;;9.07;;
35891;SDS011;21993;42.672;23.296;2022-07-23T08:16:13;16.27;;;10.97;;
35891;SDS011;21993;42.672;23.296;2022-07-23T08:18:38;16.27;;;8.87;;
35891;SDS011;21993;42.672;23.296;2022-07-23T08:21:04;13.80;;;8.83;;
35891;SDS011;21993;42.672;23.296;2022-07-23T08:23:30;16.60;;;9.30;;
35891;SDS011;21993;42.672;23.296;2022-07-23T08:25:56;9.07;;;8.13;;
35891;SDS011;21993;42.672;23.296;2022-07-23T08:28:22;15.20;;;10.63;;
35891;SDS011;21993;42.672;23.296;2022-07-23T08:30:48;14.33;;;9.17;;
35891;SDS011;21993;42.672;23.296;2022-07-23T08:33:14;12.50;;;8.57;;
35891;SDS011;21993;42.672;23.296;2022-07-23T08:35:43;13.10;;;8.67;;
35891;SDS011;21993;42.672;23.296;2022-07-23T08:38:13;12.97;;;8.63;;
35891;SDS011;21993;42.672;23.296;2022-07-23T08:40:41;11.73;;;8.83;;
35891;SDS011;21993;42.672;23.296;2022-07-23T08:43:10;20.53;;;9.53;;
35891;SDS011;21993;42.672;23.296;2022-07-23T08:45:40;15.63;;;8.63;;
35891;SDS011;21993;42.672;23.296;2022-07-23T08:48:08;15.57;;;9.23;;
35891;SDS011;21993;42.672;23.296;2022-07-23T08:50:38;15.63;;;9.77;;
35891;SDS011;21993;42.672;23.296;2022-07-23T08:53:08;13.07;;;8.27;;
35891;SDS011;21993;42.672;23.296;2022-07-23T08:55:34;12.67;;;9.27;;
35891;SDS011;21993;42.672;23.296;2022-07-23T08:58:00;16.90;;;9.03;;
35891;SDS011;21993;42.672;23.296;2022-07-23T09:00:26;12.10;;;8.70;;
35891;SDS011;21993;42.672;23.296;2022-07-23T09:02:52;12.50;;;8.57;;
35891;SDS011;21993;42.672;23.296;2022-07-23T09:05:18;11.20;;;9.57;;
35891;SDS011;21993;42.672;23.296;2022-07-23T09:10:54;11.23;;;8.47;;
35891;SDS011;21993;42.672;23.296;2022-07-23T09:15:59;14.10;;;8.17;;
35891;SDS011;21993;42.672;23.296;2022-07-23T09:21:07;19.53;;;9.73;;
35891;SDS011;21993;42.672;23.296;2022-07-23T09:23:36;15.90;;;8.93;;
35891;SDS011;21993;42.672;23.296;2022-07-23T09:26:07;11.70;;;8.40;;
35891;SDS011;21993;42.672;23.296;2022-07-23T09:28:56;14.10;;;8.65;;
35891;SDS011;21993;42.672;23.296;2022-07-23T09:31:25;16.60;;;9.37;;
35891;SDS011;21993;42.672;23.296;2022-07-23T09:34:07;13.85;;;9.35;;
35891;SDS011;21993;42.672;23.296;2022-07-23T09:36:36;14.57;;;9.00;;
35891;SDS011;21993;42.672;23.296;2022-07-23T09:39:01;12.82;;;8.45;;
35891;SDS011;21993;42.672;23.296;2022-07-23T09:41:33;13.90;;;10.38;;
35891;SDS011;21993;42.672;23.296;2022-07-23T09:44:06;15.70;;;8.30;;
35891;SDS011;21993;42.672;23.296;2022-07-23T09:46:36;13.52;;;8.10;;
35891;SDS011;21993;42.672;23.296;2022-07-23T09:49:14;13.07;;;8.57;;
35891;SDS011;21993;42.672;23.296;2022-07-23T09:51:45;14.32;;;7.90;;
35891;SDS011;21993;42.672;23.296;2022-07-23T09:54:56;10.90;;;8.02;;
35891;SDS011;21993;42.672;23.296;2022-07-23T09:57:03;14.55;;;8.38;;
35891;SDS011;21993;42.672;23.296;2022-07-23T09:59:32;10.13;;;7.60;;
35891;SDS011;21993;42.672;23.296;2022-07-23T10:02:00;9.77;;;7.88;;
35891;SDS011;21993;42.672;23.296;2022-07-23T10:04:29;15.50;;;7.40;;
35891;SDS011;21993;42.672;23.296;2022-07-23T10:06:56;12.20;;;7.32;;
35891;SDS011;21993;42.672;23.296;2022-07-23T10:09:25;9.70;;;7.07;;
35891;SDS011;21993;42.672;23.296;2022-07-23T10:11:54;12.77;;;8.68;;
35891;SDS011;21993;42.672;23.296;2022-07-23T10:14:25;13.75;;;7.82;;
35891;SDS011;21993;42.672;23.296;2022-07-23T10:16:52;13.73;;;7.00;;
35891;SDS011;21993;42.672;23.296;2022-07-23T10:19:18;10.65;;;8.18;;
35891;SDS011;21993;42.672;23.296;2022-07-23T10:21:52;16.40;;;7.78;;
35891;SDS011;21993;42.672;23.296;2022-07-23T10:24:36;12.65;;;8.13;;
35891;SDS011;21993;42.672;23.296;2022-07-23T10:30:22;10.05;;;7.60;;
35891;SDS011;21993;42.672;23.296;2022-07-23T10:32:59;9.35;;;7.60;;
35891;SDS011;21993;42.672;23.296;2022-07-23T10:35:36;13.70;;;8.07;;
35891;SDS011;21993;42.672;23.296;2022-07-23T10:38:24;11.93;;;7.45;;
35891;SDS011;21993;42.672;23.296;2022-07-23T10:40:58;9.15;;;6.50;;
35891;SDS011;21993;42.672;23.296;2022-07-23T10:43:26;10.35;;;6.85;;
35891;SDS011;21993;42.672;23.296;2022-07-23T10:45:53;8.25;;;6.75;;
35891;SDS011;21993;42.672;23.296;2022-07-23T10:48:23;12.07;;;7.18;;
35891;SDS011;21993;42.672;23.296;2022-07-23T10:51:06;14.98;;;6.63;;
35891;SDS011;21993;42.672;23.296;2022-07-23T10:53:57;7.18;;;6.10;;
35891;SDS011;21993;42.672;23.296;2022-07-23T10:59:23;13.55;;;8.00;;
35891;SDS011;21993;42.672;23.296;2022-07-23T11:01:49;12.77;;;6.78;;
35891;SDS011;21993;42.672;23.296;2022-07-23T11:04:15;13.90;;;6.72;;
35891;SDS011;21993;42.672;23.296;2022-07-23T11:09:57;18.27;;;6.20;;
35891;SDS011;21993;42.672;23.296;2022-07-23T11:17:24;11.50;;;6.60;;
35891;SDS011;21993;42.672;23.296;2022-07-23T11:25:12;15.70;;;7.47;;
35891;SDS011;21993;42.672;23.296;2022-07-23T11:27:53;11.63;;;6.30;;
35891;SDS011;21993;42.672;23.296;2022-07-23T11:32:53;11.60;;;6.40;;
35891;SDS011;21993;42.672;23.296;2022-07-23T11:35:38;14.38;;;6.47;;
35891;SDS011;21993;42.672;23.296;2022-07-23T11:38:07;13.82;;;6.53;;
35891;SDS011;21993;42.672;23.296;2022-07-23T11:40:53;11.73;;;6.13;;
35891;SDS011;21993;42.672;23.296;2022-07-23T11:43:21;11.50;;;5.93;;
35891;SDS011;21993;42.672;23.296;2022-07-23T11:45:50;12.15;;;6.43;;
35891;SDS011;21993;42.672;23.296;2022-07-23T11:48:19;13.88;;;6.60;;
35891;SDS011;21993;42.672;23.296;2022-07-23T11:50:46;12.02;;;6.40;;
35891;SDS011;21993;42.672;23.296;2022-07-23T11:53:12;15.73;;;5.97;;
35891;SDS011;21993;42.672;23.296;2022-07-23T11:55:38;13.23;;;5.97;;
35891;SDS011;21993;42.672;23.296;2022-07-23T11:58:04;11.30;;;5.72;;
35891;SDS011;21993;42.672;23.296;2022-07-23T12:00:30;15.95;;;5.90;;
35891;SDS011;21993;42.672;23.296;2022-07-23T12:02:57;10.85;;;5.40;;
35891;SDS011;21993;42.672;23.296;2022-07-23T12:05:29;19.90;;;5.95;;
35891;SDS011;21993;42.672;23.296;2022-07-23T12:07:57;12.63;;;6.18;;
35891;SDS011;21993;42.672;23.296;2022-07-23T12:10:24;12.05;;;6.22;;
35891;SDS011;21993;42.672;23.296;2022-07-23T12:15:26;12.48;;;5.10;;
35891;SDS011;21993;42.672;23.296;2022-07-23T12:17:54;15.30;;;5.18;;
35891;SDS011;21993;42.672;23.296;2022-07-23T12:20:24;13.43;;;5.38;;
35891;SDS011;21993;42.672;23.296;2022-07-23T12:22:53;10.85;;;5.93;;
35891;SDS011;21993;42.672;23.296;2022-07-23T12:25:23;10.50;;;5.35;;
35891;SDS011;21993;42.672;23.296;2022-07-23T12:30:38;15.07;;;6.00;;
35891;SDS011;21993;42.672;23.296;2022-07-23T12:33:04;10.27;;;5.72;;
35891;SDS011;21993;42.672;23.296;2022-07-23T12:35:40;11.05;;;5.68;;
35891;SDS011;21993;42.672;23.296;2022-07-23T12:38:09;18.30;;;5.28;;
35891;SDS011;21993;42.672;23.296;2022-07-23T12:40:44;12.80;;;5.97;;
35891;SDS011;21993;42.672;23.296;2022-07-23T12:43:11;11.38;;;5.53;;
35891;SDS011;21993;42.672;23.296;2022-07-23T12:45:51;10.23;;;5.82;;
35891;SDS011;21993;42.672;23.296;2022-07-23T12:48:38;10.95;;;6.35;;
35891;SDS011;21993;42.672;23.296;2022-07-23T12:56:28;11.18;;;5.25;;
35891;SDS011;21993;42.672;23.296;2022-07-23T12:58:56;13.55;;;6.15;;
35891;SDS011;21993;42.672;23.296;2022-07-23T13:01:42;16.45;;;5.60;;
35891;SDS011;21993;42.672;23.296;2022-07-23T13:04:21;18.67;;;5.88;;
35891;SDS011;21993;42.672;23.296;2022-07-23T13:06:57;12.13;;;5.30;;
35891;SDS011;21993;42.672;23.296;2022-07-23T13:09:26;9.98;;;5.40;;
35891;SDS011;21993;42.672;23.296;2022-07-23T13:11:54;14.35;;;5.70;;
35891;SDS011;21993;42.672;23.296;2022-07-23T13:14:20;18.20;;;5.40;;
35891;SDS011;21993;42.672;23.296;2022-07-23T13:16:47;13.73;;;5.20;;
35891;SDS011;21993;42.672;23.296;2022-07-23T13:19:14;13.75;;;5.65;;
35891;SDS011;21993;42.672;23.296;2022-07-23T13:21:41;15.27;;;5.32;;
35891;SDS011;21993;42.672;23.296;2022-07-23T13:24:07;14.45;;;6.65;;
35891;SDS011;21993;42.672;23.296;2022-07-23T13:26:34;10.05;;;6.03;;
35891;SDS011;21993;42.672;23.296;2022-07-23T13:28:59;13.23;;;5.75;;
35891;SDS011;21993;42.672;23.296;2022-07-23T13:31:25;9.32;;;6.00;;
35891;SDS011;21993;42.672;23.296;2022-07-23T13:33:50;14.23;;;5.75;;
35891;SDS011;21993;42.672;23.296;2022-07-23T13:39:37;16.38;;;5.70;;
35891;SDS011;21993;42.672;23.296;2022-07-23T13:42:03;12.38;;;6.03;;
35891;SDS011;21993;42.672;23.296;2022-07-23T13:44:28;10.48;;;5.38;;
35891;SDS011;21993;42.672;23.296;2022-07-23T13:46:54;12.63;;;5.55;;
35891;SDS011;21993;42.672;23.296;2022-07-23T13:49:19;9.65;;;5.03;;
35891;SDS011;21993;42.672;23.296;2022-07-23T13:51:45;10.13;;;5.10;;
35891;SDS011;21993;42.672;23.296;2022-07-23T13:54:10;11.77;;;4.95;;
35891;SDS011;21993;42.672;23.296;2022-07-23T13:56:36;10.95;;;5.57;;
35891;SDS011;21993;42.672;23.296;2022-07-23T13:59:01;12.23;;;5.40;;
35891;SDS011;21993;42.672;23.296;2022-07-23T14:01:27;8.30;;;5.10;;
35891;SDS011;21993;42.672;23.296;2022-07-23T14:03:52;9.20;;;5.53;;
35891;SDS011;21993;42.672;23.296;2022-07-23T14:06:18;10.07;;;5.32;;
35891;SDS011;21993;42.672;23.296;2022-07-23T14:08:43;10.32;;;5.20;;
35891;SDS011;21993;42.672;23.296;2022-07-23T14:11:09;10.13;;;4.97;;
35891;SDS011;21993;42.672;23.296;2022-07-23T14:13:34;10.63;;;5.30;;
35891;SDS011;21993;42.672;23.296;2022-07-23T14:16:00;12.48;;;5.63;;
35891;SDS011;21993;42.672;23.296;2022-07-23T14:18:25;14.18;;;6.10;;
35891;SDS011;21993;42.672;23.296;2022-07-23T14:20:51;13.55;;;5.45;;
35891;SDS011;21993;42.672;23.296;2022-07-23T14:23:16;11.77;;;6.03;;
35891;SDS011;21993;42.672;23.296;2022-07-23T14:25:41;8.27;;;5.20;;
35891;SDS011;21993;42.672;23.296;2022-07-23T14:28:07;11.73;;;6.05;;
35891;SDS011;21993;42.672;23.296;2022-07-23T14:30:33;13.13;;;5.95;;
35891;SDS011;21993;42.672;23.296;2022-07-23T14:32:58;8.85;;;5.90;;
35891;SDS011;21993;42.672;23.296;2022-07-23T14:35:24;11.77;;;5.68;;
35891;SDS011;21993;42.672;23.296;2022-07-23T14:37:49;17.52;;;5.82;;
35891;SDS011;21993;42.672;23.296;2022-07-23T14:40:15;11.60;;;5.43;;
35891;SDS011;21993;42.672;23.296;2022-07-23T14:42:40;11.02;;;5.88;;
35891;SDS011;21993;42.672;23.296;2022-07-23T14:45:06;8.75;;;5.35;;
35891;SDS011;21993;42.672;23.296;2022-07-23T14:47:31;9.88;;;5.50;;
35891;SDS011;21993;42.672;23.296;2022-07-23T14:49:57;17.77;;;5.82;;
35891;SDS011;21993;42.672;23.296;2022-07-23T14:52:22;9.15;;;5.35;;
35891;SDS011;21993;42.672;23.296;2022-07-23T14:54:48;9.25;;;5.43;;
35891;SDS011;21993;42.672;23.296;2022-07-23T14:57:13;11.80;;;5.50;;
35891;SDS011;21993;42.672;23.296;2022-07-23T14:59:39;10.98;;;5.30;;
35891;SDS011;21993;42.672;23.296;2022-07-23T15:02:07;10.60;;;5.28;;
35891;SDS011;21993;42.672;23.296;2022-07-23T15:04:32;8.25;;;5.40;;
35891;SDS011;21993;42.672;23.296;2022-07-23T15:06:58;8.30;;;5.50;;
35891;SDS011;21993;42.672;23.296;2022-07-23T15:09:23;12.70;;;5.53;;
35891;SDS011;21993;42.672;23.296;2022-07-23T15:11:50;8.23;;;5.75;;